sensor_id;sensor_type;location;lat;lon;timestamp;P1;P2;P0
55518;PMS5003;41724;51.176;-0.708;2024-03-06T00:00:55;19;19;
55518;PMS5003;41724;51.176;-0.708;2024-03-06T00:03:22;21;21;
55518;PMS5003;41724;51.176;-0.708;2024-03-06T00:05:49;31;29;
55518;PMS5003;41724;51.176;-0.708;2024-03-06T00:08:16;19;19;
55518;PMS5003;41724;51.176;-0.708;2024-03-06T00:10:44;24;24;
55518;PMS5003;41724;51.176;-0.708;2024-03-06T00:13:11;23;23;
55518;PMS5003;41724;51.176;-0.708;2024-03-06T00:15:38;26;26;
55518;PMS5003;41724;51.176;-0.708;2024-03-06T00:18:05;23;23;
55518;PMS5003;41724;51.176;-0.708;2024-03-06T00:20:32;28;28;
55518;PMS5003;41724;51.176;-0.708;2024-03-06T00:23:00;32;28;
55518;PMS5003;41724;51.176;-0.708;2024-03-06T00:25:27;20;19;
55518;PMS5003;41724;51.176;-0.708;2024-03-06T00:27:54;29;27;
55518;PMS5003;41724;51.176;-0.708;2024-03-06T00:30:21;23;22;
55518;PMS5003;41724;51.176;-0.708;2024-03-06T00:32:48;26;26;
55518;PMS5003;41724;51.176;-0.708;2024-03-06T00:35:15;25;24;
55518;PMS5003;41724;51.176;-0.708;2024-03-06T00:37:43;28;27;
55518;PMS5003;41724;51.176;-0.708;2024-03-06T00:40:11;28;26;
55518;PMS5003;41724;51.176;-0.708;2024-03-06T00:42:39;31;27;
55518;PMS5003;41724;51.176;-0.708;2024-03-06T00:45:06;25;24;
55518;PMS5003;41724;51.176;-0.708;2024-03-06T00:47:33;26;25;
55518;PMS5003;41724;51.176;-0.708;2024-03-06T00:50:00;27;25;
55518;PMS5003;41724;51.176;-0.708;2024-03-06T00:52:27;29;29;
55518;PMS5003;41724;51.176;-0.708;2024-03-06T00:54:55;29;28;
55518;PMS5003;41724;51.176;-0.708;2024-03-06T00:57:21;31;29;
55518;PMS5003;41724;51.176;-0.708;2024-03-06T00:59:49;24;24;
55518;PMS5003;41724;51.176;-0.708;2024-03-06T01:02:16;22;22;
55518;PMS5003;41724;51.176;-0.708;2024-03-06T01:04:43;25;23;
55518;PMS5003;41724;51.176;-0.708;2024-03-06T01:07:09;28;25;
55518;PMS5003;41724;51.176;-0.708;2024-03-06T01:09:37;23;23;
55518;PMS5003;41724;51.176;-0.708;2024-03-06T01:12:04;25;25;
55518;PMS5003;41724;51.176;-0.708;2024-03-06T01:14:31;34;31;
55518;PMS5003;41724;51.176;-0.708;2024-03-06T01:16:58;29;25;
55518;PMS5003;41724;51.176;-0.708;2024-03-06T01:19:26;28;28;
55518;PMS5003;41724;51.176;-0.708;2024-03-06T01:21:53;27;24;
55518;PMS5003;41724;51.176;-0.708;2024-03-06T01:24:20;30;29;
55518;PMS5003;41724;51.176;-0.708;2024-03-06T01:26:48;38;36;
55518;PMS5003;41724;51.176;-0.708;2024-03-06T01:29:15;29;28;
55518;PMS5003;41724;51.176;-0.708;2024-03-06T01:31:42;33;31;
55518;PMS5003;41724;51.176;-0.708;2024-03-06T01:34:09;28;27;
55518;PMS5003;41724;51.176;-0.708;2024-03-06T01:36:36;28;27;
55518;PMS5003;41724;51.176;-0.708;2024-03-06T01:39:03;34;31;
55518;PMS5003;41724;51.176;-0.708;2024-03-06T01:41:30;25;24;
55518;PMS5003;41724;51.176;-0.708;2024-03-06T01:43:57;28;26;
55518;PMS5003;41724;51.176;-0.708;2024-03-06T01:46:24;29;29;
55518;PMS5003;41724;51.176;-0.708;2024-03-06T01:48:52;30;25;
55518;PMS5003;41724;51.176;-0.708;2024-03-06T01:51:20;28;27;
55518;PMS5003;41724;51.176;-0.708;2024-03-06T01:53:47;34;30;
55518;PMS5003;41724;51.176;-0.708;2024-03-06T01:56:15;36;33;
55518;PMS5003;41724;51.176;-0.708;2024-03-06T01:58:42;30;29;
55518;PMS5003;41724;51.176;-0.708;2024-03-06T02:01:11;29;27;
55518;PMS5003;41724;51.176;-0.708;2024-03-06T02:08:17;28;26;
55518;PMS5003;41724;51.176;-0.708;2024-03-06T02:10:45;30;29;
55518;PMS5003;41724;51.176;-0.708;2024-03-06T02:13:12;31;29;
55518;PMS5003;41724;51.176;-0.708;2024-03-06T02:15:39;30;28;
55518;PMS5003;41724;51.176;-0.708;2024-03-06T02:18:07;33;30;
55518;PMS5003;41724;51.176;-0.708;2024-03-06T02:20:34;34;32;
55518;PMS5003;41724;51.176;-0.708;2024-03-06T02:23:01;35;31;
55518;PMS5003;41724;51.176;-0.708;2024-03-06T02:25:28;26;23;
55518;PMS5003;41724;51.176;-0.708;2024-03-06T02:27:55;26;22;
55518;PMS5003;41724;51.176;-0.708;2024-03-06T02:30:22;37;34;
55518;PMS5003;41724;51.176;-0.708;2024-03-06T02:32:49;30;29;
55518;PMS5003;41724;51.176;-0.708;2024-03-06T02:35:16;29;28;
55518;PMS5003;41724;51.176;-0.708;2024-03-06T02:37:43;34;31;
55518;PMS5003;41724;51.176;-0.708;2024-03-06T02:40:11;24;24;
55518;PMS5003;41724;51.176;-0.708;2024-03-06T02:42:38;29;28;
55518;PMS5003;41724;51.176;-0.708;2024-03-06T02:45:05;36;33;
55518;PMS5003;41724;51.176;-0.708;2024-03-06T02:47:33;31;30;
55518;PMS5003;41724;51.176;-0.708;2024-03-06T02:50:00;29;26;
55518;PMS5003;41724;51.176;-0.708;2024-03-06T02:52:27;27;27;
55518;PMS5003;41724;51.176;-0.708;2024-03-06T02:54:54;26;23;
55518;PMS5003;41724;51.176;-0.708;2024-03-06T02:57:21;30;28;
55518;PMS5003;41724;51.176;-0.708;2024-03-06T02:59:48;24;23;
55518;PMS5003;41724;51.176;-0.708;2024-03-06T03:02:15;28;26;
55518;PMS5003;41724;51.176;-0.708;2024-03-06T03:04:42;27;26;
55518;PMS5003;41724;51.176;-0.708;2024-03-06T03:07:10;33;31;
55518;PMS5003;41724;51.176;-0.708;2024-03-06T03:09:37;30;28;
55518;PMS5003;41724;51.176;-0.708;2024-03-06T03:12:04;31;28;
55518;PMS5003;41724;51.176;-0.708;2024-03-06T03:14:31;38;34;
55518;PMS5003;41724;51.176;-0.708;2024-03-06T03:16:59;25;25;
55518;PMS5003;41724;51.176;-0.708;2024-03-06T03:19:26;27;26;
55518;PMS5003;41724;51.176;-0.708;2024-03-06T03:21:53;21;20;
55518;PMS5003;41724;51.176;-0.708;2024-03-06T03:24:21;28;27;
55518;PMS5003;41724;51.176;-0.708;2024-03-06T03:26:48;23;22;
55518;PMS5003;41724;51.176;-0.708;2024-03-06T03:29:15;27;26;
55518;PMS5003;41724;51.176;-0.708;2024-03-06T03:31:42;27;26;
55518;PMS5003;41724;51.176;-0.708;2024-03-06T03:34:09;21;19;
55518;PMS5003;41724;51.176;-0.708;2024-03-06T03:36:39;23;20;
55518;PMS5003;41724;51.176;-0.708;2024-03-06T03:39:07;29;28;
55518;PMS5003;41724;51.176;-0.708;2024-03-06T03:41:34;21;19;
55518;PMS5003;41724;51.176;-0.708;2024-03-06T03:44:01;27;26;
55518;PMS5003;41724;51.176;-0.708;2024-03-06T03:46:29;22;20;
55518;PMS5003;41724;51.176;-0.708;2024-03-06T03:48:56;23;22;
55518;PMS5003;41724;51.176;-0.708;2024-03-06T03:51:23;27;24;
55518;PMS5003;41724;51.176;-0.708;2024-03-06T03:53:50;25;21;
55518;PMS5003;41724;51.176;-0.708;2024-03-06T03:56:17;22;22;
55518;PMS5003;41724;51.176;-0.708;2024-03-06T03:58:44;24;24;
55518;PMS5003;41724;51.176;-0.708;2024-03-06T04:01:11;24;21;
55518;PMS5003;41724;51.176;-0.708;2024-03-06T04:03:38;23;21;
55518;PMS5003;41724;51.176;-0.708;2024-03-06T04:06:06;26;24;
55518;PMS5003;41724;51.176;-0.708;2024-03-06T04:08:33;23;22;
55518;PMS5003;41724;51.176;-0.708;2024-03-06T04:10:59;29;23;
55518;PMS5003;41724;51.176;-0.708;2024-03-06T04:13:26;22;21;
55518;PMS5003;41724;51.176;-0.708;2024-03-06T04:15:53;32;26;
55518;PMS5003;41724;51.176;-0.708;2024-03-06T04:18:20;26;23;
55518;PMS5003;41724;51.176;-0.708;2024-03-06T04:20:48;22;21;
55518;PMS5003;41724;51.176;-0.708;2024-03-06T04:23:15;23;22;
55518;PMS5003;41724;51.176;-0.708;2024-03-06T04:25:42;27;23;
55518;PMS5003;41724;51.176;-0.708;2024-03-06T04:28:09;23;22;
55518;PMS5003;41724;51.176;-0.708;2024-03-06T04:30:36;22;21;
55518;PMS5003;41724;51.176;-0.708;2024-03-06T04:33:04;22;21;
55518;PMS5003;41724;51.176;-0.708;2024-03-06T04:35:31;19;19;
55518;PMS5003;41724;51.176;-0.708;2024-03-06T04:37:58;20;18;
55518;PMS5003;41724;51.176;-0.708;2024-03-06T04:40:25;18;18;
55518;PMS5003;41724;51.176;-0.708;2024-03-06T04:42:52;20;18;
55518;PMS5003;41724;51.176;-0.708;2024-03-06T04:45:19;21;18;
55518;PMS5003;41724;51.176;-0.708;2024-03-06T04:47:47;22;22;
55518;PMS5003;41724;51.176;-0.708;2024-03-06T04:50:14;21;18;
55518;PMS5003;41724;51.176;-0.708;2024-03-06T04:52:41;22;20;
55518;PMS5003;41724;51.176;-0.708;2024-03-06T04:55:09;22;21;
55518;PMS5003;41724;51.176;-0.708;2024-03-06T04:57:37;22;21;
55518;PMS5003;41724;51.176;-0.708;2024-03-06T05:00:04;23;22;
55518;PMS5003;41724;51.176;-0.708;2024-03-06T05:02:32;21;21;
55518;PMS5003;41724;51.176;-0.708;2024-03-06T05:05:00;28;25;
55518;PMS5003;41724;51.176;-0.708;2024-03-06T05:07:27;26;24;
55518;PMS5003;41724;51.176;-0.708;2024-03-06T05:09:54;27;25;
55518;PMS5003;41724;51.176;-0.708;2024-03-06T05:12:21;19;18;
55518;PMS5003;41724;51.176;-0.708;2024-03-06T05:14:48;25;24;
55518;PMS5003;41724;51.176;-0.708;2024-03-06T05:17:15;25;22;
55518;PMS5003;41724;51.176;-0.708;2024-03-06T05:19:42;24;23;
55518;PMS5003;41724;51.176;-0.708;2024-03-06T05:22:09;22;21;
55518;PMS5003;41724;51.176;-0.708;2024-03-06T05:24:37;24;22;
55518;PMS5003;41724;51.176;-0.708;2024-03-06T05:27:04;23;22;
55518;PMS5003;41724;51.176;-0.708;2024-03-06T05:29:31;25;23;
55518;PMS5003;41724;51.176;-0.708;2024-03-06T05:31:58;29;29;
55518;PMS5003;41724;51.176;-0.708;2024-03-06T05:34:25;32;30;
55518;PMS5003;41724;51.176;-0.708;2024-03-06T05:36:52;22;20;
55518;PMS5003;41724;51.176;-0.708;2024-03-06T05:39:19;27;25;
55518;PMS5003;41724;51.176;-0.708;2024-03-06T05:41:46;20;20;
55518;PMS5003;41724;51.176;-0.708;2024-03-06T05:44:13;19;19;
55518;PMS5003;41724;51.176;-0.708;2024-03-06T05:46:40;22;21;
55518;PMS5003;41724;51.176;-0.708;2024-03-06T05:49:07;23;21;
55518;PMS5003;41724;51.176;-0.708;2024-03-06T05:51:34;18;18;
55518;PMS5003;41724;51.176;-0.708;2024-03-06T05:54:01;23;21;
55518;PMS5003;41724;51.176;-0.708;2024-03-06T05:56:29;25;24;
55518;PMS5003;41724;51.176;-0.708;2024-03-06T05:58:55;29;22;
55518;PMS5003;41724;51.176;-0.708;2024-03-06T06:01:22;24;24;
55518;PMS5003;41724;51.176;-0.708;2024-03-06T06:03:49;23;23;
55518;PMS5003;41724;51.176;-0.708;2024-03-06T06:06:16;23;22;
55518;PMS5003;41724;51.176;-0.708;2024-03-06T06:08:44;28;27;
55518;PMS5003;41724;51.176;-0.708;2024-03-06T06:11:11;21;20;
55518;PMS5003;41724;51.176;-0.708;2024-03-06T06:13:38;24;21;
55518;PMS5003;41724;51.176;-0.708;2024-03-06T06:16:05;29;28;
55518;PMS5003;41724;51.176;-0.708;2024-03-06T06:18:33;22;19;
55518;PMS5003;41724;51.176;-0.708;2024-03-06T06:20:59;25;23;
55518;PMS5003;41724;51.176;-0.708;2024-03-06T06:23:26;26;24;
55518;PMS5003;41724;51.176;-0.708;2024-03-06T06:25:53;24;23;
55518;PMS5003;41724;51.176;-0.708;2024-03-06T06:28:20;21;19;
55518;PMS5003;41724;51.176;-0.708;2024-03-06T06:30:47;25;23;
55518;PMS5003;41724;51.176;-0.708;2024-03-06T06:33:15;28;28;
55518;PMS5003;41724;51.176;-0.708;2024-03-06T06:35:42;21;20;
55518;PMS5003;41724;51.176;-0.708;2024-03-06T06:38:08;20;20;
55518;PMS5003;41724;51.176;-0.708;2024-03-06T06:40:36;25;24;
55518;PMS5003;41724;51.176;-0.708;2024-03-06T06:43:03;26;22;
55518;PMS5003;41724;51.176;-0.708;2024-03-06T06:45:30;20;20;
55518;PMS5003;41724;51.176;-0.708;2024-03-06T06:47:57;25;23;
55518;PMS5003;41724;51.176;-0.708;2024-03-06T06:50:25;20;18;
55518;PMS5003;41724;51.176;-0.708;2024-03-06T06:52:52;23;23;
55518;PMS5003;41724;51.176;-0.708;2024-03-06T06:55:19;26;25;
55518;PMS5003;41724;51.176;-0.708;2024-03-06T06:57:46;24;22;
55518;PMS5003;41724;51.176;-0.708;2024-03-06T07:00:14;29;27;
55518;PMS5003;41724;51.176;-0.708;2024-03-06T07:02:42;20;20;
55518;PMS5003;41724;51.176;-0.708;2024-03-06T07:05:09;21;19;
55518;PMS5003;41724;51.176;-0.708;2024-03-06T07:07:38;22;22;
55518;PMS5003;41724;51.176;-0.708;2024-03-06T07:10:05;24;22;
55518;PMS5003;41724;51.176;-0.708;2024-03-06T07:12:33;22;21;
55518;PMS5003;41724;51.176;-0.708;2024-03-06T07:15:01;22;19;
55518;PMS5003;41724;51.176;-0.708;2024-03-06T07:17:28;22;18;
55518;PMS5003;41724;51.176;-0.708;2024-03-06T07:19:55;19;19;
55518;PMS5003;41724;51.176;-0.708;2024-03-06T07:22:22;20;19;
55518;PMS5003;41724;51.176;-0.708;2024-03-06T07:24:49;18;18;
55518;PMS5003;41724;51.176;-0.708;2024-03-06T07:27:16;26;24;
55518;PMS5003;41724;51.176;-0.708;2024-03-06T07:29:44;27;25;
55518;PMS5003;41724;51.176;-0.708;2024-03-06T07:32:11;21;20;
55518;PMS5003;41724;51.176;-0.708;2024-03-06T07:34:38;19;18;
55518;PMS5003;41724;51.176;-0.708;2024-03-06T07:37:06;18;18;
55518;PMS5003;41724;51.176;-0.708;2024-03-06T07:39:33;19;18;
55518;PMS5003;41724;51.176;-0.708;2024-03-06T07:42:00;24;22;
55518;PMS5003;41724;51.176;-0.708;2024-03-06T07:44:27;30;28;
55518;PMS5003;41724;51.176;-0.708;2024-03-06T07:46:54;25;22;
55518;PMS5003;41724;51.176;-0.708;2024-03-06T07:49:21;23;19;
55518;PMS5003;41724;51.176;-0.708;2024-03-06T07:51:48;20;18;
55518;PMS5003;41724;51.176;-0.708;2024-03-06T07:54:15;26;25;
55518;PMS5003;41724;51.176;-0.708;2024-03-06T07:56:42;26;23;
55518;PMS5003;41724;51.176;-0.708;2024-03-06T07:59:09;20;19;
55518;PMS5003;41724;51.176;-0.708;2024-03-06T08:01:36;23;18;
55518;PMS5003;41724;51.176;-0.708;2024-03-06T08:04:02;27;26;
55518;PMS5003;41724;51.176;-0.708;2024-03-06T08:06:29;18;16;
55518;PMS5003;41724;51.176;-0.708;2024-03-06T08:08:56;19;18;
55518;PMS5003;41724;51.176;-0.708;2024-03-06T08:11:25;19;18;
55518;PMS5003;41724;51.176;-0.708;2024-03-06T08:13:56;14;13;
55518;PMS5003;41724;51.176;-0.708;2024-03-06T08:16:24;17;17;
55518;PMS5003;41724;51.176;-0.708;2024-03-06T08:18:51;21;20;
55518;PMS5003;41724;51.176;-0.708;2024-03-06T08:21:18;17;15;
55518;PMS5003;41724;51.176;-0.708;2024-03-06T08:23:45;16;16;
55518;PMS5003;41724;51.176;-0.708;2024-03-06T08:26:12;25;25;
55518;PMS5003;41724;51.176;-0.708;2024-03-06T08:28:39;21;21;
55518;PMS5003;41724;51.176;-0.708;2024-03-06T08:31:06;21;20;
55518;PMS5003;41724;51.176;-0.708;2024-03-06T08:33:33;18;16;
55518;PMS5003;41724;51.176;-0.708;2024-03-06T08:36:01;21;20;
55518;PMS5003;41724;51.176;-0.708;2024-03-06T08:38:28;15;15;
55518;PMS5003;41724;51.176;-0.708;2024-03-06T08:40:55;19;18;
55518;PMS5003;41724;51.176;-0.708;2024-03-06T08:43:22;24;21;
55518;PMS5003;41724;51.176;-0.708;2024-03-06T08:45:49;18;18;
55518;PMS5003;41724;51.176;-0.708;2024-03-06T08:48:15;23;22;
55518;PMS5003;41724;51.176;-0.708;2024-03-06T08:50:43;22;21;
55518;PMS5003;41724;51.176;-0.708;2024-03-06T08:53:09;20;20;
55518;PMS5003;41724;51.176;-0.708;2024-03-06T08:55:36;26;24;
55518;PMS5003;41724;51.176;-0.708;2024-03-06T08:58:03;23;20;
55518;PMS5003;41724;51.176;-0.708;2024-03-06T09:00:30;19;19;
55518;PMS5003;41724;51.176;-0.708;2024-03-06T09:02:57;25;24;
55518;PMS5003;41724;51.176;-0.708;2024-03-06T09:05:24;21;21;
55518;PMS5003;41724;51.176;-0.708;2024-03-06T09:07:52;25;25;
55518;PMS5003;41724;51.176;-0.708;2024-03-06T09:10:19;25;24;
55518;PMS5003;41724;51.176;-0.708;2024-03-06T09:12:46;20;20;
55518;PMS5003;41724;51.176;-0.708;2024-03-06T09:15:13;24;24;
55518;PMS5003;41724;51.176;-0.708;2024-03-06T09:17:41;23;23;
55518;PMS5003;41724;51.176;-0.708;2024-03-06T09:20:08;28;27;
55518;PMS5003;41724;51.176;-0.708;2024-03-06T09:22:36;21;20;
55518;PMS5003;41724;51.176;-0.708;2024-03-06T09:25:04;18;17;
55518;PMS5003;41724;51.176;-0.708;2024-03-06T09:27:32;19;18;
55518;PMS5003;41724;51.176;-0.708;2024-03-06T09:29:59;20;18;
55518;PMS5003;41724;51.176;-0.708;2024-03-06T09:32:27;18;17;
55518;PMS5003;41724;51.176;-0.708;2024-03-06T09:34:54;24;24;
55518;PMS5003;41724;51.176;-0.708;2024-03-06T09:37:22;23;20;
55518;PMS5003;41724;51.176;-0.708;2024-03-06T09:39:49;21;20;
55518;PMS5003;41724;51.176;-0.708;2024-03-06T09:42:17;21;21;
55518;PMS5003;41724;51.176;-0.708;2024-03-06T09:44:43;20;19;
55518;PMS5003;41724;51.176;-0.708;2024-03-06T09:47:12;21;21;
55518;PMS5003;41724;51.176;-0.708;2024-03-06T09:49:40;29;25;
55518;PMS5003;41724;51.176;-0.708;2024-03-06T09:52:08;21;21;
55518;PMS5003;41724;51.176;-0.708;2024-03-06T09:54:36;27;26;
55518;PMS5003;41724;51.176;-0.708;2024-03-06T09:57:04;23;22;
55518;PMS5003;41724;51.176;-0.708;2024-03-06T09:59:31;23;22;
55518;PMS5003;41724;51.176;-0.708;2024-03-06T10:01:59;23;22;
55518;PMS5003;41724;51.176;-0.708;2024-03-06T10:04:28;32;30;
55518;PMS5003;41724;51.176;-0.708;2024-03-06T10:06:55;24;22;
55518;PMS5003;41724;51.176;-0.708;2024-03-06T10:09:24;24;24;
55518;PMS5003;41724;51.176;-0.708;2024-03-06T10:11:52;20;20;
55518;PMS5003;41724;51.176;-0.708;2024-03-06T10:14:19;30;28;
55518;PMS5003;41724;51.176;-0.708;2024-03-06T10:16:52;26;25;
55518;PMS5003;41724;51.176;-0.708;2024-03-06T10:19:21;23;23;
55518;PMS5003;41724;51.176;-0.708;2024-03-06T10:21:50;30;25;
55518;PMS5003;41724;51.176;-0.708;2024-03-06T10:24:18;29;29;
55518;PMS5003;41724;51.176;-0.708;2024-03-06T10:26:45;31;31;
55518;PMS5003;41724;51.176;-0.708;2024-03-06T10:29:14;27;26;
55518;PMS5003;41724;51.176;-0.708;2024-03-06T10:31:46;33;32;
55518;PMS5003;41724;51.176;-0.708;2024-03-06T10:34:16;26;22;
55518;PMS5003;41724;51.176;-0.708;2024-03-06T10:36:43;27;25;
55518;PMS5003;41724;51.176;-0.708;2024-03-06T10:39:11;27;26;
55518;PMS5003;41724;51.176;-0.708;2024-03-06T10:41:38;27;24;
55518;PMS5003;41724;51.176;-0.708;2024-03-06T10:44:08;31;30;
55518;PMS5003;41724;51.176;-0.708;2024-03-06T10:46:39;31;29;
55518;PMS5003;41724;51.176;-0.708;2024-03-06T10:49:09;30;28;
55518;PMS5003;41724;51.176;-0.708;2024-03-06T10:51:38;27;26;
55518;PMS5003;41724;51.176;-0.708;2024-03-06T10:54:07;29;28;
55518;PMS5003;41724;51.176;-0.708;2024-03-06T10:56:34;26;26;
55518;PMS5003;41724;51.176;-0.708;2024-03-06T10:59:02;26;26;
55518;PMS5003;41724;51.176;-0.708;2024-03-06T11:01:30;30;30;
55518;PMS5003;41724;51.176;-0.708;2024-03-06T11:03:58;29;28;
55518;PMS5003;41724;51.176;-0.708;2024-03-06T11:06:27;28;26;
55518;PMS5003;41724;51.176;-0.708;2024-03-06T11:08:54;30;30;
55518;PMS5003;41724;51.176;-0.708;2024-03-06T11:11:22;30;30;
55518;PMS5003;41724;51.176;-0.708;2024-03-06T11:13:50;34;32;
55518;PMS5003;41724;51.176;-0.708;2024-03-06T11:16:26;24;24;
55518;PMS5003;41724;51.176;-0.708;2024-03-06T11:19:04;30;29;
55518;PMS5003;41724;51.176;-0.708;2024-03-06T11:21:32;27;27;
55518;PMS5003;41724;51.176;-0.708;2024-03-06T11:24:16;28;27;
55518;PMS5003;41724;51.176;-0.708;2024-03-06T11:26:46;30;30;
55518;PMS5003;41724;51.176;-0.708;2024-03-06T11:29:15;29;25;
55518;PMS5003;41724;51.176;-0.708;2024-03-06T11:31:56;24;24;
55518;PMS5003;41724;51.176;-0.708;2024-03-06T11:34:26;26;26;
55518;PMS5003;41724;51.176;-0.708;2024-03-06T11:36:53;21;21;
55518;PMS5003;41724;51.176;-0.708;2024-03-06T11:39:22;23;22;
55518;PMS5003;41724;51.176;-0.708;2024-03-06T11:41:49;20;19;
55518;PMS5003;41724;51.176;-0.708;2024-03-06T11:44:17;26;24;
55518;PMS5003;41724;51.176;-0.708;2024-03-06T11:46:46;27;27;
55518;PMS5003;41724;51.176;-0.708;2024-03-06T11:49:14;22;22;
55518;PMS5003;41724;51.176;-0.708;2024-03-06T11:51:42;23;23;
55518;PMS5003;41724;51.176;-0.708;2024-03-06T11:54:11;17;17;
55518;PMS5003;41724;51.176;-0.708;2024-03-06T11:56:38;16;16;
55518;PMS5003;41724;51.176;-0.708;2024-03-06T11:59:06;18;17;
55518;PMS5003;41724;51.176;-0.708;2024-03-06T12:01:33;23;23;
55518;PMS5003;41724;51.176;-0.708;2024-03-06T12:04:00;18;18;
55518;PMS5003;41724;51.176;-0.708;2024-03-06T12:06:27;26;26;
55518;PMS5003;41724;51.176;-0.708;2024-03-06T12:08:54;19;19;
55518;PMS5003;41724;51.176;-0.708;2024-03-06T12:11:21;20;20;
55518;PMS5003;41724;51.176;-0.708;2024-03-06T12:13:49;19;19;
55518;PMS5003;41724;51.176;-0.708;2024-03-06T12:16:17;20;19;
55518;PMS5003;41724;51.176;-0.708;2024-03-06T12:18:45;18;18;
55518;PMS5003;41724;51.176;-0.708;2024-03-06T12:21:12;15;15;
55518;PMS5003;41724;51.176;-0.708;2024-03-06T12:23:39;22;21;
55518;PMS5003;41724;51.176;-0.708;2024-03-06T12:26:07;17;17;
55518;PMS5003;41724;51.176;-0.708;2024-03-06T12:28:35;16;16;
55518;PMS5003;41724;51.176;-0.708;2024-03-06T12:31:03;19;18;
55518;PMS5003;41724;51.176;-0.708;2024-03-06T12:33:31;18;18;
55518;PMS5003;41724;51.176;-0.708;2024-03-06T12:36:01;19;19;
55518;PMS5003;41724;51.176;-0.708;2024-03-06T12:38:29;24;23;
55518;PMS5003;41724;51.176;-0.708;2024-03-06T12:40:56;24;22;
55518;PMS5003;41724;51.176;-0.708;2024-03-06T12:43:24;24;23;
55518;PMS5003;41724;51.176;-0.708;2024-03-06T12:45:51;24;24;
55518;PMS5003;41724;51.176;-0.708;2024-03-06T12:48:19;24;24;
55518;PMS5003;41724;51.176;-0.708;2024-03-06T12:50:46;20;20;
55518;PMS5003;41724;51.176;-0.708;2024-03-06T12:53:13;26;24;
55518;PMS5003;41724;51.176;-0.708;2024-03-06T12:55:41;25;24;
55518;PMS5003;41724;51.176;-0.708;2024-03-06T12:58:08;25;24;
55518;PMS5003;41724;51.176;-0.708;2024-03-06T13:00:34;20;20;
55518;PMS5003;41724;51.176;-0.708;2024-03-06T13:03:02;23;22;
55518;PMS5003;41724;51.176;-0.708;2024-03-06T13:05:29;19;19;
55518;PMS5003;41724;51.176;-0.708;2024-03-06T13:07:56;17;17;
55518;PMS5003;41724;51.176;-0.708;2024-03-06T13:10:24;18;17;
55518;PMS5003;41724;51.176;-0.708;2024-03-06T13:12:51;19;19;
55518;PMS5003;41724;51.176;-0.708;2024-03-06T13:15:18;19;19;
55518;PMS5003;41724;51.176;-0.708;2024-03-06T13:17:45;23;22;
55518;PMS5003;41724;51.176;-0.708;2024-03-06T13:20:12;21;21;
55518;PMS5003;41724;51.176;-0.708;2024-03-06T13:22:40;23;23;
55518;PMS5003;41724;51.176;-0.708;2024-03-06T13:25:07;23;21;
55518;PMS5003;41724;51.176;-0.708;2024-03-06T13:27:34;20;19;
55518;PMS5003;41724;51.176;-0.708;2024-03-06T13:30:01;21;20;
55518;PMS5003;41724;51.176;-0.708;2024-03-06T13:32:28;24;22;
55518;PMS5003;41724;51.176;-0.708;2024-03-06T13:34:55;18;16;
55518;PMS5003;41724;51.176;-0.708;2024-03-06T13:37:22;20;20;
55518;PMS5003;41724;51.176;-0.708;2024-03-06T13:39:49;18;17;
55518;PMS5003;41724;51.176;-0.708;2024-03-06T13:42:16;16;16;
55518;PMS5003;41724;51.176;-0.708;2024-03-06T13:44:43;20;20;
55518;PMS5003;41724;51.176;-0.708;2024-03-06T13:47:14;16;14;
55518;PMS5003;41724;51.176;-0.708;2024-03-06T13:49:41;18;18;
55518;PMS5003;41724;51.176;-0.708;2024-03-06T13:52:08;14;14;
55518;PMS5003;41724;51.176;-0.708;2024-03-06T13:54:37;19;19;
55518;PMS5003;41724;51.176;-0.708;2024-03-06T13:57:04;11;11;
55518;PMS5003;41724;51.176;-0.708;2024-03-06T13:59:32;14;13;
55518;PMS5003;41724;51.176;-0.708;2024-03-06T14:01:59;10;10;
55518;PMS5003;41724;51.176;-0.708;2024-03-06T14:04:27;12;11;
55518;PMS5003;41724;51.176;-0.708;2024-03-06T14:06:54;11;10;
55518;PMS5003;41724;51.176;-0.708;2024-03-06T14:09:21;9;9;
55518;PMS5003;41724;51.176;-0.708;2024-03-06T14:11:48;8;7;
55518;PMS5003;41724;51.176;-0.708;2024-03-06T14:14:15;9;9;
55518;PMS5003;41724;51.176;-0.708;2024-03-06T14:16:42;10;10;
55518;PMS5003;41724;51.176;-0.708;2024-03-06T14:19:10;11;10;
55518;PMS5003;41724;51.176;-0.708;2024-03-06T14:21:37;6;5;
55518;PMS5003;41724;51.176;-0.708;2024-03-06T14:24:05;7;6;
55518;PMS5003;41724;51.176;-0.708;2024-03-06T14:26:32;6;6;
55518;PMS5003;41724;51.176;-0.708;2024-03-06T14:29:00;6;6;
55518;PMS5003;41724;51.176;-0.708;2024-03-06T14:31:27;6;6;
55518;PMS5003;41724;51.176;-0.708;2024-03-06T14:33:54;5;4;
55518;PMS5003;41724;51.176;-0.708;2024-03-06T14:36:21;3;3;
55518;PMS5003;41724;51.176;-0.708;2024-03-06T14:38:49;3;3;
55518;PMS5003;41724;51.176;-0.708;2024-03-06T14:41:16;5;5;
55518;PMS5003;41724;51.176;-0.708;2024-03-06T14:43:44;4;4;
55518;PMS5003;41724;51.176;-0.708;2024-03-06T14:46:11;3;3;
55518;PMS5003;41724;51.176;-0.708;2024-03-06T14:48:39;5;5;
55518;PMS5003;41724;51.176;-0.708;2024-03-06T14:51:06;3;3;
55518;PMS5003;41724;51.176;-0.708;2024-03-06T14:53:33;3;3;
55518;PMS5003;41724;51.176;-0.708;2024-03-06T14:56:01;6;6;
55518;PMS5003;41724;51.176;-0.708;2024-03-06T14:58:29;4;4;
55518;PMS5003;41724;51.176;-0.708;2024-03-06T15:00:56;4;4;
55518;PMS5003;41724;51.176;-0.708;2024-03-06T15:03:23;3;3;
55518;PMS5003;41724;51.176;-0.708;2024-03-06T15:05:51;6;6;
55518;PMS5003;41724;51.176;-0.708;2024-03-06T15:08:18;4;4;
55518;PMS5003;41724;51.176;-0.708;2024-03-06T15:10:45;5;5;
55518;PMS5003;41724;51.176;-0.708;2024-03-06T15:13:13;6;5;
55518;PMS5003;41724;51.176;-0.708;2024-03-06T15:15:40;6;6;
55518;PMS5003;41724;51.176;-0.708;2024-03-06T15:18:08;6;6;
55518;PMS5003;41724;51.176;-0.708;2024-03-06T15:20:35;4;4;
55518;PMS5003;41724;51.176;-0.708;2024-03-06T15:23:02;4;4;
55518;PMS5003;41724;51.176;-0.708;2024-03-06T15:25:29;6;6;
55518;PMS5003;41724;51.176;-0.708;2024-03-06T15:27:57;7;7;
55518;PMS5003;41724;51.176;-0.708;2024-03-06T15:30:24;5;5;
55518;PMS5003;41724;51.176;-0.708;2024-03-06T15:32:52;5;5;
55518;PMS5003;41724;51.176;-0.708;2024-03-06T15:35:19;6;6;
55518;PMS5003;41724;51.176;-0.708;2024-03-06T15:37:47;7;7;
55518;PMS5003;41724;51.176;-0.708;2024-03-06T15:40:14;7;7;
55518;PMS5003;41724;51.176;-0.708;2024-03-06T15:42:42;12;11;
55518;PMS5003;41724;51.176;-0.708;2024-03-06T15:45:10;6;6;
55518;PMS5003;41724;51.176;-0.708;2024-03-06T15:47:38;9;9;
55518;PMS5003;41724;51.176;-0.708;2024-03-06T15:50:06;7;7;
55518;PMS5003;41724;51.176;-0.708;2024-03-06T15:52:33;8;7;
55518;PMS5003;41724;51.176;-0.708;2024-03-06T15:55:00;6;6;
55518;PMS5003;41724;51.176;-0.708;2024-03-06T15:57:27;9;9;
55518;PMS5003;41724;51.176;-0.708;2024-03-06T15:59:53;9;9;
55518;PMS5003;41724;51.176;-0.708;2024-03-06T16:02:21;7;7;
55518;PMS5003;41724;51.176;-0.708;2024-03-06T16:04:48;8;8;
55518;PMS5003;41724;51.176;-0.708;2024-03-06T16:07:14;8;8;
55518;PMS5003;41724;51.176;-0.708;2024-03-06T16:09:41;9;9;
55518;PMS5003;41724;51.176;-0.708;2024-03-06T16:12:08;10;9;